x

South Nomad (46036) Wave Buoy

7:00am - Wed 25th May 2016 All times are UTC.

  • Sig Wave height 4.9ft
  • Peak Period 7s
  • Wind
    13mph, 18mph gusts
  • Sea Temp 50°f
  • Air Temp 48°f
  • Sea Pressure 1026.3mb

More Historic Weather Station data

Upgrade to MSW Pro to gain access to the past 30 days of data for over 8000 Wavebouys and Weather Stations around the globe.

Join Pro

Comparision Forecast

View Surf forecast
   
Wed 05/25 7:00am 5ft 7s 13 18 mph 1026.3mb 50f 48f
6:00am 5ft 7s 16 18 mph 1026.2mb 50f 47f
5:00am 5ft 7s 16 18 mph 1026mb 50f 47f
4:00am 5ft 8s 16 18 mph 1025.4mb 50f 48f
3:00am 5.5ft 8s 16 18 mph 1025mb 51f 48f
2:00am 5.5ft 8s 18 20 mph 1024.8mb 51f 48f
1:00am 6ft 8s 16 18 mph 1025mb 51f 49f
12:00am 6ft 8s 18 20 mph 1024.9mb 51f 49f
Tue 05/24 11:00pm 6ft 8s 16 20 mph 1025mb 51f 49f
10:00pm 6ft 8s 18 20 mph 1024.8mb 51f 49f
9:00pm 6ft 8s 16 20 mph 1024.7mb 50f 49f
8:00pm 6ft 8s 16 18 mph 1024.7mb 50f 49f
7:00pm 6ft 8s 13 18 mph 1024.2mb 50f 49f
6:00pm 6ft 8s 16 18 mph 1024.1mb 50f 48f
5:00pm 6ft 8s 16 18 mph 1023.9mb 50f 48f
4:00pm 6ft 9s 18 22 mph 1023.6mb 50f 48f
3:00pm 6.5ft 8s 16 22 mph 1023.3mb 50f 48f
2:00pm 6.5ft 9s 18 25 mph 1022.8mb 50f 48f
1:00pm 6ft 8s 18 22 mph 1022.6mb 50f 48f
12:00pm 7ft 8s 18 22 mph 1022.4mb 50f 48f
11:00am 7ft 8s 16 20 mph 1022.5mb 50f 48f
10:00am 7ft 9s 18 22 mph 1022.3mb 50f 48f
9:00am 6.5ft 8s 18 22 mph 1022.4mb 50f 49f
8:00am 7ft 9s 18 22 mph 1022.5mb 50f 48f
7:00am 7.5ft 9s 18 20 mph 1022.9mb 50f 48f
6:00am 7ft 8s 20 25 mph 1022.9mb 50f 48f
5:00am 7ft 8s 18 22 mph 1022.7mb 50f 49f
4:00am 7.5ft 8s 18 22 mph 1022.3mb 50f 49f
3:00am 8ft 10s 20 25 mph 1022.3mb 50f 49f
2:00am 8ft 8s 18 22 mph 1022.3mb 50f 48f
1:00am 8.5ft 8s 18 25 mph 1022.3mb 50f 49f
12:00am 8ft 8s 18 25 mph 1022.3mb 50f 49f
Mon 05/23 11:00pm 9ft 8s 18 22 mph 1022.3mb 50f 49f
10:00pm 8ft 7s 20 27 mph 1022.2mb 50f 49f
9:00pm 8ft 8s 22 25 mph 1021.8mb 50f 49f
8:00pm 8.5ft 8s 20 25 mph 1021.8mb 50f 49f
7:00pm 8ft 8s 20 25 mph 1021.8mb 50f 49f
6:00pm 9ft 8s 22 27 mph 1021.9mb 50f 50f
5:00pm 9ft 8s 20
mph
1021.8mb 50f 50f
4:00pm 8.5ft 8s 20 25 mph 1021.7mb 50f 49f
3:00pm 9ft 8s 20 25 mph 1021.7mb 50f 49f
2:00pm 8.5ft 8s 22 27 mph 1021.3mb 50f 50f
1:00pm 9ft 8s 25
mph
1021mb 50f 49f
12:00pm  -   -  25
mph
1020.9mb - 49f
11:00am 10ft 8s 25 31 mph 1020.9mb 50f 50f
10:00am 9.5ft 9s 20 25 mph 1021mb 50f 50f
9:00am 9ft 8s 22 29 mph 1020.8mb 50f 49f
8:00am 9ft 8s 25 29 mph 1021mb 50f 49f
7:00am  -   -  25
mph
1021.1mb - 49f
6:00am 10ft 8s 22 29 mph 1021.1mb 50f 50f
5:00am 9.5ft 9s 25 29 mph 1020.7mb 50f 50f
4:00am 10ft 8s 22 29 mph 1020.3mb 50f 50f
3:00am 10ft 8s 25 31 mph 1020.1mb 50f 50f
2:00am 11ft 8s 25 31 mph 1019.9mb 50f 49f
1:00am  -   -  25
mph
1019.5mb - 50f
12:00am 10.5ft 8s 25 31 mph 1019.6mb 50f 49f
Sun 05/22 11:00pm 10.5ft 9s 25 29 mph 1019.5mb 50f 49f
10:00pm 12ft 8s 25 34 mph 1019.2mb 50f 49f
9:00pm 10.5ft 8s 25 29 mph 1018.8mb 50f 50f
8:00pm 11ft 8s 25 31 mph 1018.4mb 50f 49f
7:00pm 11ft 8s 25 31 mph 1018.2mb 50f 49f
6:00pm 10ft 8s 25 29 mph 1018.2mb 50f 49f
5:00pm 10ft 8s 27 31 mph 1017.7mb 50f 48f
4:00pm 10ft 8s 25 31 mph 1017.5mb 50f 49f
3:00pm 9ft 8s 25 31 mph 1016.9mb 50f 49f
2:00pm 10ft 8s 25 31 mph 1016.5mb 50f 49f
1:00pm 9ft 8s 25 34 mph 1016.3mb 50f 49f
12:00pm 9ft 7s 27 31 mph 1015.8mb 50f 49f
11:00am  -   -  27
mph
1015.9mb - 49f
10:00am 8.5ft 7s 25 31 mph 1016.2mb 50f 49f
9:00am 8ft 7s 25 29 mph 1016.3mb 50f 48f
8:00am 8ft 6s 25 31 mph 1016.2mb 50f 49f
7:00am 8ft 6s 22 29 mph 1016.1mb 50f 49f
6:00am  -   -  22
mph
- - -
5:00am 8ft 8s 25 29 mph 1015.7mb 50f 49f
4:00am 7.5ft 8s 22 29 mph 1015.6mb 50f 50f
3:00am 7ft 8s 20 25 mph 1015.7mb 50f 50f
2:00am 7ft 8s 18 22 mph 1015.8mb 50f 50f
1:00am 7.5ft 9s 20 25 mph 1015.7mb 50f 50f
12:00am 8ft 9s 22 29 mph 1015.7mb 50f 50f
Sat 05/21 11:00pm 8ft 9s 22 25 mph 1015.7mb 50f 50f
10:00pm 8ft 8s 20 27 mph 1015.8mb 50f 50f
9:00pm 8.5ft 8s 18 22 mph 1016mb 50f 50f
8:00pm 8.5ft 7s 18 25 mph 1015.9mb 50f 50f
7:00pm 8ft 8s 20 25 mph 1016.1mb 50f 50f
6:00pm 8.5ft 8s 20 25 mph 1016.1mb 50f 50f
5:00pm 9.5ft 8s 22 27 mph 1016.2mb 50f 49f
4:00pm 10ft 9s 22 27 mph 1016.2mb 50f 49f
3:00pm 9.5ft 10s 25 29 mph 1016.2mb 50f 49f
2:00pm 10ft 8s 25 27 mph 1016.6mb 50f 48f
1:00pm 10ft 9s 22 29 mph 1016.9mb 50f 49f
12:00pm 10ft 10s 25 31 mph 1017.3mb 50f 49f
11:00am 10ft 10s 22 27 mph 1017.5mb 50f 48f
10:00am 12ft 10s 25 29 mph 1017.7mb 50f 49f
9:00am 11.5ft 9s 22
mph
1017.6mb 50f 49f